sensor_id;sensor_type;location;lat;lon;timestamp;P1;durP1;ratioP1;P2;durP2;ratioP2
37823;SDS011;23667;43.246;26.576;2022-08-19T00:00:36;13.90;;;9.38;;
37823;SDS011;23667;43.246;26.576;2022-08-19T00:03:03;14.55;;;9.30;;
37823;SDS011;23667;43.246;26.576;2022-08-19T00:05:29;10.93;;;8.93;;
37823;SDS011;23667;43.246;26.576;2022-08-19T00:07:54;15.23;;;9.63;;
37823;SDS011;23667;43.246;26.576;2022-08-19T00:10:20;13.02;;;9.35;;
37823;SDS011;23667;43.246;26.576;2022-08-19T00:12:46;12.07;;;8.98;;
37823;SDS011;23667;43.246;26.576;2022-08-19T00:15:13;17.38;;;9.73;;
37823;SDS011;23667;43.246;26.576;2022-08-19T00:17:42;14.20;;;9.52;;
37823;SDS011;23667;43.246;26.576;2022-08-19T00:20:10;14.60;;;10.15;;
37823;SDS011;23667;43.246;26.576;2022-08-19T00:22:38;12.20;;;9.43;;
37823;SDS011;23667;43.246;26.576;2022-08-19T00:25:06;16.77;;;10.25;;
37823;SDS011;23667;43.246;26.576;2022-08-19T00:27:32;13.63;;;10.20;;
37823;SDS011;23667;43.246;26.576;2022-08-19T00:29:58;15.23;;;9.65;;
37823;SDS011;23667;43.246;26.576;2022-08-19T00:32:24;10.10;;;9.05;;
37823;SDS011;23667;43.246;26.576;2022-08-19T00:34:50;11.45;;;9.73;;
37823;SDS011;23667;43.246;26.576;2022-08-19T00:37:21;14.98;;;9.32;;
37823;SDS011;23667;43.246;26.576;2022-08-19T00:39:50;13.07;;;9.60;;
37823;SDS011;23667;43.246;26.576;2022-08-19T00:42:17;15.63;;;9.48;;
37823;SDS011;23667;43.246;26.576;2022-08-19T00:44:43;10.90;;;9.80;;
37823;SDS011;23667;43.246;26.576;2022-08-19T00:47:09;14.90;;;8.93;;
37823;SDS011;23667;43.246;26.576;2022-08-19T00:52:42;12.98;;;9.48;;
37823;SDS011;23667;43.246;26.576;2022-08-19T00:55:10;12.52;;;9.57;;
37823;SDS011;23667;43.246;26.576;2022-08-19T00:57:51;13.68;;;8.48;;
37823;SDS011;23667;43.246;26.576;2022-08-19T01:00:20;14.80;;;8.95;;
37823;SDS011;23667;43.246;26.576;2022-08-19T01:02:48;13.95;;;9.90;;
37823;SDS011;23667;43.246;26.576;2022-08-19T01:05:18;11.43;;;9.23;;
37823;SDS011;23667;43.246;26.576;2022-08-19T01:07:48;12.38;;;8.57;;
37823;SDS011;23667;43.246;26.576;2022-08-19T01:10:16;13.98;;;9.45;;
37823;SDS011;23667;43.246;26.576;2022-08-19T01:12:47;11.00;;;8.93;;
37823;SDS011;23667;43.246;26.576;2022-08-19T01:15:15;13.60;;;9.48;;
37823;SDS011;23667;43.246;26.576;2022-08-19T01:17:46;12.85;;;9.27;;
37823;SDS011;23667;43.246;26.576;2022-08-19T01:20:14;12.27;;;9.27;;
37823;SDS011;23667;43.246;26.576;2022-08-19T01:22:43;9.60;;;8.30;;
37823;SDS011;23667;43.246;26.576;2022-08-19T01:25:13;12.73;;;9.52;;
37823;SDS011;23667;43.246;26.576;2022-08-19T01:27:44;10.13;;;8.38;;
37823;SDS011;23667;43.246;26.576;2022-08-19T01:30:17;10.82;;;9.20;;
37823;SDS011;23667;43.246;26.576;2022-08-19T01:32:48;14.82;;;9.05;;
37823;SDS011;23667;43.246;26.576;2022-08-19T01:35:14;12.60;;;8.40;;
37823;SDS011;23667;43.246;26.576;2022-08-19T01:37:44;11.98;;;8.55;;
37823;SDS011;23667;43.246;26.576;2022-08-19T01:40:14;10.80;;;9.07;;
37823;SDS011;23667;43.246;26.576;2022-08-19T01:42:40;10.57;;;9.00;;
37823;SDS011;23667;43.246;26.576;2022-08-19T01:45:06;10.95;;;8.70;;
37823;SDS011;23667;43.246;26.576;2022-08-19T01:47:33;11.30;;;9.00;;
37823;SDS011;23667;43.246;26.576;2022-08-19T01:50:00;12.25;;;8.63;;
37823;SDS011;23667;43.246;26.576;2022-08-19T01:52:27;12.82;;;9.45;;
37823;SDS011;23667;43.246;26.576;2022-08-19T01:54:52;11.10;;;8.95;;
37823;SDS011;23667;43.246;26.576;2022-08-19T01:57:18;16.50;;;9.57;;
37823;SDS011;23667;43.246;26.576;2022-08-19T01:59:44;18.08;;;9.32;;
37823;SDS011;23667;43.246;26.576;2022-08-19T02:02:10;16.00;;;9.07;;
37823;SDS011;23667;43.246;26.576;2022-08-19T02:04:36;15.02;;;8.77;;
37823;SDS011;23667;43.246;26.576;2022-08-19T02:07:05;13.63;;;8.65;;
37823;SDS011;23667;43.246;26.576;2022-08-19T02:09:33;16.27;;;9.68;;
37823;SDS011;23667;43.246;26.576;2022-08-19T02:11:59;15.45;;;8.80;;
37823;SDS011;23667;43.246;26.576;2022-08-19T02:14:24;14.23;;;9.15;;
37823;SDS011;23667;43.246;26.576;2022-08-19T02:16:50;15.27;;;9.00;;
37823;SDS011;23667;43.246;26.576;2022-08-19T02:19:15;15.57;;;9.07;;
37823;SDS011;23667;43.246;26.576;2022-08-19T02:21:41;10.20;;;8.63;;
37823;SDS011;23667;43.246;26.576;2022-08-19T02:24:08;14.30;;;7.90;;
37823;SDS011;23667;43.246;26.576;2022-08-19T02:26:34;10.68;;;8.50;;
37823;SDS011;23667;43.246;26.576;2022-08-19T02:28:59;9.93;;;7.65;;
37823;SDS011;23667;43.246;26.576;2022-08-19T02:31:25;12.10;;;8.27;;
37823;SDS011;23667;43.246;26.576;2022-08-19T02:33:53;11.52;;;8.48;;
37823;SDS011;23667;43.246;26.576;2022-08-19T02:36:19;10.52;;;7.75;;
37823;SDS011;23667;43.246;26.576;2022-08-19T02:38:44;10.23;;;8.65;;
37823;SDS011;23667;43.246;26.576;2022-08-19T02:41:20;12.32;;;8.43;;
37823;SDS011;23667;43.246;26.576;2022-08-19T02:43:48;14.55;;;9.18;;
37823;SDS011;23667;43.246;26.576;2022-08-19T02:46:18;11.45;;;8.73;;
37823;SDS011;23667;43.246;26.576;2022-08-19T02:48:50;12.90;;;8.70;;
37823;SDS011;23667;43.246;26.576;2022-08-19T02:51:21;10.93;;;9.07;;
37823;SDS011;23667;43.246;26.576;2022-08-19T02:53:48;9.30;;;8.32;;
37823;SDS011;23667;43.246;26.576;2022-08-19T02:56:14;12.90;;;8.27;;
37823;SDS011;23667;43.246;26.576;2022-08-19T02:58:40;9.43;;;8.48;;
37823;SDS011;23667;43.246;26.576;2022-08-19T03:01:06;12.10;;;8.77;;
37823;SDS011;23667;43.246;26.576;2022-08-19T03:03:32;11.75;;;8.52;;
37823;SDS011;23667;43.246;26.576;2022-08-19T03:06:11;14.82;;;9.35;;
37823;SDS011;23667;43.246;26.576;2022-08-19T03:08:39;9.95;;;8.07;;
37823;SDS011;23667;43.246;26.576;2022-08-19T03:11:10;15.07;;;9.00;;
37823;SDS011;23667;43.246;26.576;2022-08-19T03:13:41;16.30;;;8.90;;
37823;SDS011;23667;43.246;26.576;2022-08-19T03:16:08;13.63;;;8.20;;
37823;SDS011;23667;43.246;26.576;2022-08-19T03:18:34;14.80;;;8.63;;
37823;SDS011;23667;43.246;26.576;2022-08-19T03:20:59;12.73;;;8.38;;
37823;SDS011;23667;43.246;26.576;2022-08-19T03:23:25;12.90;;;8.57;;
37823;SDS011;23667;43.246;26.576;2022-08-19T03:25:51;10.45;;;8.73;;
37823;SDS011;23667;43.246;26.576;2022-08-19T03:28:18;12.68;;;8.35;;
37823;SDS011;23667;43.246;26.576;2022-08-19T03:30:54;12.95;;;8.45;;
37823;SDS011;23667;43.246;26.576;2022-08-19T03:33:29;14.85;;;8.32;;
37823;SDS011;23667;43.246;26.576;2022-08-19T03:36:01;14.80;;;8.63;;
37823;SDS011;23667;43.246;26.576;2022-08-19T03:38:30;17.83;;;9.50;;
37823;SDS011;23667;43.246;26.576;2022-08-19T03:41:03;16.95;;;8.95;;
37823;SDS011;23667;43.246;26.576;2022-08-19T03:43:35;16.08;;;9.48;;
37823;SDS011;23667;43.246;26.576;2022-08-19T03:46:05;13.25;;;9.30;;
37823;SDS011;23667;43.246;26.576;2022-08-19T03:48:34;19.00;;;8.80;;
37823;SDS011;23667;43.246;26.576;2022-08-19T03:51:00;15.55;;;8.60;;
37823;SDS011;23667;43.246;26.576;2022-08-19T03:53:29;12.02;;;8.77;;
37823;SDS011;23667;43.246;26.576;2022-08-19T03:55:56;13.15;;;9.13;;
37823;SDS011;23667;43.246;26.576;2022-08-19T03:58:24;25.40;;;9.00;;
37823;SDS011;23667;43.246;26.576;2022-08-19T04:00:50;14.98;;;8.60;;
37823;SDS011;23667;43.246;26.576;2022-08-19T04:03:16;14.23;;;8.93;;
37823;SDS011;23667;43.246;26.576;2022-08-19T04:05:43;14.55;;;8.80;;
37823;SDS011;23667;43.246;26.576;2022-08-19T04:08:13;20.73;;;8.68;;
37823;SDS011;23667;43.246;26.576;2022-08-19T04:10:48;17.83;;;8.55;;
37823;SDS011;23667;43.246;26.576;2022-08-19T04:13:17;13.23;;;9.00;;
37823;SDS011;23667;43.246;26.576;2022-08-19T04:15:48;11.70;;;8.52;;
37823;SDS011;23667;43.246;26.576;2022-08-19T04:18:17;15.65;;;9.02;;
37823;SDS011;23667;43.246;26.576;2022-08-19T04:20:50;19.20;;;8.73;;
37823;SDS011;23667;43.246;26.576;2022-08-19T04:23:19;14.88;;;9.38;;
37823;SDS011;23667;43.246;26.576;2022-08-19T04:25:44;10.23;;;8.32;;
37823;SDS011;23667;43.246;26.576;2022-08-19T04:28:11;11.90;;;9.30;;
37823;SDS011;23667;43.246;26.576;2022-08-19T04:30:42;18.25;;;9.93;;
37823;SDS011;23667;43.246;26.576;2022-08-19T04:33:18;14.95;;;9.88;;
37823;SDS011;23667;43.246;26.576;2022-08-19T04:35:51;30.38;;;10.55;;
37823;SDS011;23667;43.246;26.576;2022-08-19T04:38:19;19.20;;;10.23;;
37823;SDS011;23667;43.246;26.576;2022-08-19T04:40:49;23.35;;;10.20;;
37823;SDS011;23667;43.246;26.576;2022-08-19T04:43:34;22.55;;;12.48;;
37823;SDS011;23667;43.246;26.576;2022-08-19T04:46:09;17.05;;;10.18;;
37823;SDS011;23667;43.246;26.576;2022-08-19T04:48:36;19.98;;;11.38;;
37823;SDS011;23667;43.246;26.576;2022-08-19T04:51:05;14.10;;;9.90;;
37823;SDS011;23667;43.246;26.576;2022-08-19T04:53:33;21.20;;;10.18;;
37823;SDS011;23667;43.246;26.576;2022-08-19T04:56:03;21.40;;;10.93;;
37823;SDS011;23667;43.246;26.576;2022-08-19T04:58:32;14.43;;;9.90;;
37823;SDS011;23667;43.246;26.576;2022-08-19T05:01:01;21.95;;;9.63;;
37823;SDS011;23667;43.246;26.576;2022-08-19T05:03:27;14.52;;;9.20;;
37823;SDS011;23667;43.246;26.576;2022-08-19T05:05:55;15.43;;;10.00;;
37823;SDS011;23667;43.246;26.576;2022-08-19T05:08:21;17.67;;;10.02;;
37823;SDS011;23667;43.246;26.576;2022-08-19T05:10:47;17.35;;;9.20;;
37823;SDS011;23667;43.246;26.576;2022-08-19T05:13:14;20.08;;;9.02;;
37823;SDS011;23667;43.246;26.576;2022-08-19T05:15:43;13.80;;;8.57;;
37823;SDS011;23667;43.246;26.576;2022-08-19T05:18:09;27.42;;;9.57;;
37823;SDS011;23667;43.246;26.576;2022-08-19T05:20:53;19.45;;;8.90;;
37823;SDS011;23667;43.246;26.576;2022-08-19T05:23:37;27.38;;;8.70;;
37823;SDS011;23667;43.246;26.576;2022-08-19T05:26:03;17.73;;;8.52;;
37823;SDS011;23667;43.246;26.576;2022-08-19T05:28:29;10.75;;;8.00;;
37823;SDS011;23667;43.246;26.576;2022-08-19T05:30:55;15.35;;;7.05;;
37823;SDS011;23667;43.246;26.576;2022-08-19T05:33:21;11.52;;;7.40;;
37823;SDS011;23667;43.246;26.576;2022-08-19T05:35:48;17.15;;;7.65;;
37823;SDS011;23667;43.246;26.576;2022-08-19T05:38:14;19.80;;;7.50;;
37823;SDS011;23667;43.246;26.576;2022-08-19T05:40:41;9.35;;;6.97;;
37823;SDS011;23667;43.246;26.576;2022-08-19T05:43:07;11.20;;;7.30;;
37823;SDS011;23667;43.246;26.576;2022-08-19T05:45:37;15.90;;;7.22;;
37823;SDS011;23667;43.246;26.576;2022-08-19T05:48:05;9.38;;;5.97;;
37823;SDS011;23667;43.246;26.576;2022-08-19T05:50:30;11.18;;;6.05;;
37823;SDS011;23667;43.246;26.576;2022-08-19T05:52:56;14.18;;;6.22;;
37823;SDS011;23667;43.246;26.576;2022-08-19T05:55:21;6.57;;;5.85;;
37823;SDS011;23667;43.246;26.576;2022-08-19T05:57:47;12.68;;;6.20;;
37823;SDS011;23667;43.246;26.576;2022-08-19T06:00:13;10.48;;;5.90;;
37823;SDS011;23667;43.246;26.576;2022-08-19T06:02:39;9.02;;;6.20;;
37823;SDS011;23667;43.246;26.576;2022-08-19T06:05:06;11.82;;;5.35;;
37823;SDS011;23667;43.246;26.576;2022-08-19T06:07:34;10.00;;;5.30;;
37823;SDS011;23667;43.246;26.576;2022-08-19T06:10:01;12.65;;;5.38;;
37823;SDS011;23667;43.246;26.576;2022-08-19T06:12:28;7.95;;;5.13;;
37823;SDS011;23667;43.246;26.576;2022-08-19T06:14:59;7.25;;;5.38;;
37823;SDS011;23667;43.246;26.576;2022-08-19T06:17:26;9.48;;;5.18;;
37823;SDS011;23667;43.246;26.576;2022-08-19T06:19:52;13.38;;;5.03;;
37823;SDS011;23667;43.246;26.576;2022-08-19T06:22:17;8.93;;;4.32;;
37823;SDS011;23667;43.246;26.576;2022-08-19T06:24:43;7.88;;;4.13;;
37823;SDS011;23667;43.246;26.576;2022-08-19T06:27:08;8.68;;;4.25;;
37823;SDS011;23667;43.246;26.576;2022-08-19T06:29:34;9.38;;;4.43;;
37823;SDS011;23667;43.246;26.576;2022-08-19T06:32:01;10.23;;;4.30;;
37823;SDS011;23667;43.246;26.576;2022-08-19T06:34:28;7.22;;;3.70;;
37823;SDS011;23667;43.246;26.576;2022-08-19T06:36:57;11.65;;;4.40;;
37823;SDS011;23667;43.246;26.576;2022-08-19T06:39:29;6.88;;;3.45;;
37823;SDS011;23667;43.246;26.576;2022-08-19T06:41:58;9.80;;;3.63;;
37823;SDS011;23667;43.246;26.576;2022-08-19T06:44:30;15.32;;;4.82;;
37823;SDS011;23667;43.246;26.576;2022-08-19T06:47:00;14.23;;;4.20;;
37823;SDS011;23667;43.246;26.576;2022-08-19T06:49:28;12.48;;;5.00;;
37823;SDS011;23667;43.246;26.576;2022-08-19T06:51:56;17.15;;;5.07;;
37823;SDS011;23667;43.246;26.576;2022-08-19T06:54:22;25.95;;;5.40;;
37823;SDS011;23667;43.246;26.576;2022-08-19T06:56:48;11.85;;;4.03;;
37823;SDS011;23667;43.246;26.576;2022-08-19T06:59:15;4.85;;;3.63;;
37823;SDS011;23667;43.246;26.576;2022-08-19T07:01:47;8.65;;;4.13;;
37823;SDS011;23667;43.246;26.576;2022-08-19T07:04:16;9.73;;;4.13;;
37823;SDS011;23667;43.246;26.576;2022-08-19T07:06:44;8.27;;;3.88;;
37823;SDS011;23667;43.246;26.576;2022-08-19T07:09:12;6.85;;;3.83;;
37823;SDS011;23667;43.246;26.576;2022-08-19T07:11:44;8.50;;;3.60;;
37823;SDS011;23667;43.246;26.576;2022-08-19T07:14:10;9.43;;;4.05;;
37823;SDS011;23667;43.246;26.576;2022-08-19T07:16:36;7.32;;;3.72;;
37823;SDS011;23667;43.246;26.576;2022-08-19T07:19:01;7.35;;;3.53;;
37823;SDS011;23667;43.246;26.576;2022-08-19T07:21:27;7.32;;;3.55;;
37823;SDS011;23667;43.246;26.576;2022-08-19T07:23:54;8.50;;;3.10;;
37823;SDS011;23667;43.246;26.576;2022-08-19T07:26:22;8.00;;;4.00;;
37823;SDS011;23667;43.246;26.576;2022-08-19T07:28:50;5.25;;;3.42;;
37823;SDS011;23667;43.246;26.576;2022-08-19T07:31:17;5.30;;;3.50;;
37823;SDS011;23667;43.246;26.576;2022-08-19T07:33:45;9.07;;;3.70;;
37823;SDS011;23667;43.246;26.576;2022-08-19T07:36:12;9.90;;;3.50;;
37823;SDS011;23667;43.246;26.576;2022-08-19T07:38:43;10.43;;;3.60;;
37823;SDS011;23667;43.246;26.576;2022-08-19T07:41:12;7.15;;;3.40;;
37823;SDS011;23667;43.246;26.576;2022-08-19T07:43:40;9.88;;;3.95;;
37823;SDS011;23667;43.246;26.576;2022-08-19T07:46:06;10.75;;;3.88;;
37823;SDS011;23667;43.246;26.576;2022-08-19T07:48:32;7.00;;;3.58;;
37823;SDS011;23667;43.246;26.576;2022-08-19T07:51:01;10.75;;;3.92;;
37823;SDS011;23667;43.246;26.576;2022-08-19T07:55:57;3.95;;;3.20;;
37823;SDS011;23667;43.246;26.576;2022-08-19T07:58:29;3.90;;;3.10;;
37823;SDS011;23667;43.246;26.576;2022-08-19T08:00:56;12.07;;;3.13;;
37823;SDS011;23667;43.246;26.576;2022-08-19T08:03:22;11.52;;;3.15;;
37823;SDS011;23667;43.246;26.576;2022-08-19T08:06:09;29.02;;;4.13;;
37823;SDS011;23667;43.246;26.576;2022-08-19T08:08:53;8.77;;;4.20;;
37823;SDS011;23667;43.246;26.576;2022-08-19T08:11:43;9.38;;;3.63;;
37823;SDS011;23667;43.246;26.576;2022-08-19T08:14:14;8.90;;;3.75;;
37823;SDS011;23667;43.246;26.576;2022-08-19T08:16:47;12.57;;;4.28;;
37823;SDS011;23667;43.246;26.576;2022-08-19T08:19:14;17.13;;;3.72;;
37823;SDS011;23667;43.246;26.576;2022-08-19T08:21:41;9.23;;;3.58;;
37823;SDS011;23667;43.246;26.576;2022-08-19T08:24:07;10.95;;;4.13;;
37823;SDS011;23667;43.246;26.576;2022-08-19T08:26:33;9.15;;;3.42;;
37823;SDS011;23667;43.246;26.576;2022-08-19T08:28:59;9.38;;;3.78;;
37823;SDS011;23667;43.246;26.576;2022-08-19T08:31:24;7.00;;;3.75;;
37823;SDS011;23667;43.246;26.576;2022-08-19T08:33:50;10.23;;;3.10;;
37823;SDS011;23667;43.246;26.576;2022-08-19T08:36:16;15.10;;;4.32;;
37823;SDS011;23667;43.246;26.576;2022-08-19T08:38:42;7.22;;;3.88;;
37823;SDS011;23667;43.246;26.576;2022-08-19T08:43:59;12.07;;;3.63;;
37823;SDS011;23667;43.246;26.576;2022-08-19T08:51:33;15.35;;;3.28;;
37823;SDS011;23667;43.246;26.576;2022-08-19T08:54:07;9.18;;;3.10;;
37823;SDS011;23667;43.246;26.576;2022-08-19T08:56:43;9.85;;;2.90;;
37823;SDS011;23667;43.246;26.576;2022-08-19T08:59:12;10.68;;;3.67;;
37823;SDS011;23667;43.246;26.576;2022-08-19T09:01:42;12.73;;;3.80;;
37823;SDS011;23667;43.246;26.576;2022-08-19T09:04:09;9.25;;;3.10;;
37823;SDS011;23667;43.246;26.576;2022-08-19T09:06:44;7.85;;;3.45;;
37823;SDS011;23667;43.246;26.576;2022-08-19T09:09:46;8.88;;;3.20;;
37823;SDS011;23667;43.246;26.576;2022-08-19T09:15:29;10.95;;;2.95;;
37823;SDS011;23667;43.246;26.576;2022-08-19T09:17:37;8.27;;;3.47;;
37823;SDS011;23667;43.246;26.576;2022-08-19T09:22:39;7.70;;;3.30;;
37823;SDS011;23667;43.246;26.576;2022-08-19T09:25:09;6.60;;;3.30;;
37823;SDS011;23667;43.246;26.576;2022-08-19T09:27:37;11.95;;;3.63;;
37823;SDS011;23667;43.246;26.576;2022-08-19T09:30:04;9.98;;;3.35;;
37823;SDS011;23667;43.246;26.576;2022-08-19T09:32:32;8.55;;;2.75;;
37823;SDS011;23667;43.246;26.576;2022-08-19T09:34:58;13.50;;;4.10;;
37823;SDS011;23667;43.246;26.576;2022-08-19T09:37:25;6.65;;;3.05;;
37823;SDS011;23667;43.246;26.576;2022-08-19T09:39:51;15.40;;;2.88;;
37823;SDS011;23667;43.246;26.576;2022-08-19T09:42:17;13.13;;;3.13;;
37823;SDS011;23667;43.246;26.576;2022-08-19T09:44:45;7.53;;;3.20;;
37823;SDS011;23667;43.246;26.576;2022-08-19T09:47:13;12.52;;;3.47;;
37823;SDS011;23667;43.246;26.576;2022-08-19T09:49:43;10.68;;;2.97;;
37823;SDS011;23667;43.246;26.576;2022-08-19T09:52:09;6.72;;;2.95;;
37823;SDS011;23667;43.246;26.576;2022-08-19T09:54:36;11.95;;;3.33;;
37823;SDS011;23667;43.246;26.576;2022-08-19T09:57:04;9.50;;;2.78;;
37823;SDS011;23667;43.246;26.576;2022-08-19T09:59:30;14.20;;;3.28;;
37823;SDS011;23667;43.246;26.576;2022-08-19T10:01:56;12.02;;;3.45;;
37823;SDS011;23667;43.246;26.576;2022-08-19T10:04:22;7.45;;;2.75;;
37823;SDS011;23667;43.246;26.576;2022-08-19T10:06:48;9.55;;;3.45;;
37823;SDS011;23667;43.246;26.576;2022-08-19T10:09:16;10.93;;;3.28;;
37823;SDS011;23667;43.246;26.576;2022-08-19T10:11:44;5.22;;;2.88;;
37823;SDS011;23667;43.246;26.576;2022-08-19T10:14:13;8.98;;;3.28;;
37823;SDS011;23667;43.246;26.576;2022-08-19T10:16:39;8.32;;;3.10;;
37823;SDS011;23667;43.246;26.576;2022-08-19T10:19:07;10.85;;;2.88;;
37823;SDS011;23667;43.246;26.576;2022-08-19T10:21:34;5.40;;;2.85;;
37823;SDS011;23667;43.246;26.576;2022-08-19T10:24:01;6.82;;;3.00;;
37823;SDS011;23667;43.246;26.576;2022-08-19T10:26:32;5.22;;;2.95;;
37823;SDS011;23667;43.246;26.576;2022-08-19T10:29:01;6.90;;;3.22;;
37823;SDS011;23667;43.246;26.576;2022-08-19T10:31:28;13.02;;;2.95;;
37823;SDS011;23667;43.246;26.576;2022-08-19T10:33:55;9.18;;;3.30;;
37823;SDS011;23667;43.246;26.576;2022-08-19T10:36:26;8.27;;;3.47;;
37823;SDS011;23667;43.246;26.576;2022-08-19T10:38:56;8.82;;;3.00;;
37823;SDS011;23667;43.246;26.576;2022-08-19T10:41:25;9.90;;;3.33;;
37823;SDS011;23667;43.246;26.576;2022-08-19T10:43:54;10.75;;;3.00;;
37823;SDS011;23667;43.246;26.576;2022-08-19T10:46:23;13.02;;;2.75;;
37823;SDS011;23667;43.246;26.576;2022-08-19T10:48:51;7.50;;;3.03;;
37823;SDS011;23667;43.246;26.576;2022-08-19T10:51:18;11.73;;;3.22;;
37823;SDS011;23667;43.246;26.576;2022-08-19T10:54:03;15.38;;;3.50;;
37823;SDS011;23667;43.246;26.576;2022-08-19T10:56:29;4.65;;;2.67;;
37823;SDS011;23667;43.246;26.576;2022-08-19T10:59:14;7.75;;;3.00;;
37823;SDS011;23667;43.246;26.576;2022-08-19T11:01:42;11.10;;;2.65;;
37823;SDS011;23667;43.246;26.576;2022-08-19T11:04:09;6.32;;;2.95;;
37823;SDS011;23667;43.246;26.576;2022-08-19T11:06:36;9.38;;;2.78;;
37823;SDS011;23667;43.246;26.576;2022-08-19T11:09:03;10.32;;;2.78;;
37823;SDS011;23667;43.246;26.576;2022-08-19T11:11:33;13.27;;;3.65;;
37823;SDS011;23667;43.246;26.576;2022-08-19T11:14:08;6.88;;;2.63;;
37823;SDS011;23667;43.246;26.576;2022-08-19T11:16:35;8.25;;;2.88;;
37823;SDS011;23667;43.246;26.576;2022-08-19T11:19:03;5.70;;;2.50;;
37823;SDS011;23667;43.246;26.576;2022-08-19T11:21:32;7.38;;;2.65;;
37823;SDS011;23667;43.246;26.576;2022-08-19T11:24:02;7.03;;;3.53;;
37823;SDS011;23667;43.246;26.576;2022-08-19T11:26:31;11.75;;;3.45;;
37823;SDS011;23667;43.246;26.576;2022-08-19T11:29:04;8.00;;;2.72;;
37823;SDS011;23667;43.246;26.576;2022-08-19T11:31:32;10.77;;;3.22;;
37823;SDS011;23667;43.246;26.576;2022-08-19T11:34:01;10.75;;;3.25;;
37823;SDS011;23667;43.246;26.576;2022-08-19T11:36:29;14.43;;;3.45;;
37823;SDS011;23667;43.246;26.576;2022-08-19T11:38:57;13.43;;;2.45;;
37823;SDS011;23667;43.246;26.576;2022-08-19T11:41:23;8.95;;;2.55;;
37823;SDS011;23667;43.246;26.576;2022-08-19T11:43:50;4.05;;;2.50;;
37823;SDS011;23667;43.246;26.576;2022-08-19T11:46:17;10.80;;;2.88;;
37823;SDS011;23667;43.246;26.576;2022-08-19T11:48:44;6.65;;;2.22;;
37823;SDS011;23667;43.246;26.576;2022-08-19T11:51:12;11.30;;;1.90;;
37823;SDS011;23667;43.246;26.576;2022-08-19T11:53:39;7.57;;;2.90;;
37823;SDS011;23667;43.246;26.576;2022-08-19T11:56:06;9.13;;;2.47;;
37823;SDS011;23667;43.246;26.576;2022-08-19T11:58:33;5.43;;;2.60;;
37823;SDS011;23667;43.246;26.576;2022-08-19T12:00:59;6.82;;;2.50;;
37823;SDS011;23667;43.246;26.576;2022-08-19T12:03:25;10.73;;;2.60;;
37823;SDS011;23667;43.246;26.576;2022-08-19T12:05:51;10.90;;;2.95;;
37823;SDS011;23667;43.246;26.576;2022-08-19T12:08:17;11.38;;;2.70;;
37823;SDS011;23667;43.246;26.576;2022-08-19T12:10:43;6.68;;;2.53;;
37823;SDS011;23667;43.246;26.576;2022-08-19T12:13:10;8.48;;;2.58;;
37823;SDS011;23667;43.246;26.576;2022-08-19T12:15:39;13.07;;;2.40;;
37823;SDS011;23667;43.246;26.576;2022-08-19T12:18:07;12.35;;;2.25;;
37823;SDS011;23667;43.246;26.576;2022-08-19T12:20:37;4.80;;;2.50;;
37823;SDS011;23667;43.246;26.576;2022-08-19T12:23:05;8.07;;;2.13;;
37823;SDS011;23667;43.246;26.576;2022-08-19T12:25:31;16.75;;;3.10;;
37823;SDS011;23667;43.246;26.576;2022-08-19T12:27:59;8.60;;;2.33;;
37823;SDS011;23667;43.246;26.576;2022-08-19T12:30:25;7.10;;;2.20;;
37823;SDS011;23667;43.246;26.576;2022-08-19T12:32:51;9.88;;;2.88;;
37823;SDS011;23667;43.246;26.576;2022-08-19T12:35:17;9.55;;;2.75;;
37823;SDS011;23667;43.246;26.576;2022-08-19T12:37:45;6.97;;;2.33;;
37823;SDS011;23667;43.246;26.576;2022-08-19T12:40:12;7.22;;;2.50;;
37823;SDS011;23667;43.246;26.576;2022-08-19T12:42:39;6.45;;;2.42;;
37823;SDS011;23667;43.246;26.576;2022-08-19T12:45:11;10.85;;;2.85;;
37823;SDS011;23667;43.246;26.576;2022-08-19T12:47:38;14.73;;;2.50;;
37823;SDS011;23667;43.246;26.576;2022-08-19T12:50:05;8.88;;;2.58;;
37823;SDS011;23667;43.246;26.576;2022-08-19T12:52:34;6.40;;;2.00;;
37823;SDS011;23667;43.246;26.576;2022-08-19T12:55:06;7.18;;;2.42;;
37823;SDS011;23667;43.246;26.576;2022-08-19T12:57:33;9.27;;;2.42;;
37823;SDS011;23667;43.246;26.576;2022-08-19T13:00:11;15.02;;;3.30;;
37823;SDS011;23667;43.246;26.576;2022-08-19T13:02:39;14.13;;;2.30;;
37823;SDS011;23667;43.246;26.576;2022-08-19T13:05:06;12.95;;;3.10;;
37823;SDS011;23667;43.246;26.576;2022-08-19T13:07:34;4.40;;;2.63;;
37823;SDS011;23667;43.246;26.576;2022-08-19T13:10:03;11.18;;;2.40;;
37823;SDS011;23667;43.246;26.576;2022-08-19T13:12:32;7.10;;;2.22;;
37823;SDS011;23667;43.246;26.576;2022-08-19T13:14:58;9.65;;;2.42;;
37823;SDS011;23667;43.246;26.576;2022-08-19T13:17:24;10.43;;;2.03;;
37823;SDS011;23667;43.246;26.576;2022-08-19T13:19:49;11.60;;;2.60;;
37823;SDS011;23667;43.246;26.576;2022-08-19T13:22:16;7.20;;;1.80;;
37823;SDS011;23667;43.246;26.576;2022-08-19T13:24:42;7.38;;;2.15;;
37823;SDS011;23667;43.246;26.576;2022-08-19T13:27:08;9.73;;;2.13;;
37823;SDS011;23667;43.246;26.576;2022-08-19T13:29:33;11.10;;;2.45;;
37823;SDS011;23667;43.246;26.576;2022-08-19T13:32:18;11.73;;;2.00;;
37823;SDS011;23667;43.246;26.576;2022-08-19T13:35:02;3.53;;;2.00;;
37823;SDS011;23667;43.246;26.576;2022-08-19T13:37:29;12.40;;;1.98;;
37823;SDS011;23667;43.246;26.576;2022-08-19T13:40:14;11.35;;;1.45;;
37823;SDS011;23667;43.246;26.576;2022-08-19T13:42:47;11.88;;;2.00;;
37823;SDS011;23667;43.246;26.576;2022-08-19T13:45:20;12.07;;;2.05;;
37823;SDS011;23667;43.246;26.576;2022-08-19T13:47:47;11.25;;;2.10;;
37823;SDS011;23667;43.246;26.576;2022-08-19T13:50:16;10.38;;;2.17;;
37823;SDS011;23667;43.246;26.576;2022-08-19T13:52:43;9.70;;;1.65;;
37823;SDS011;23667;43.246;26.576;2022-08-19T13:55:10;12.90;;;2.67;;
37823;SDS011;23667;43.246;26.576;2022-08-19T13:57:36;8.50;;;1.80;;
37823;SDS011;23667;43.246;26.576;2022-08-19T14:00:04;14.75;;;2.08;;
37823;SDS011;23667;43.246;26.576;2022-08-19T14:02:36;10.32;;;1.95;;
37823;SDS011;23667;43.246;26.576;2022-08-19T14:05:03;5.57;;;1.92;;
37823;SDS011;23667;43.246;26.576;2022-08-19T14:07:30;11.85;;;1.90;;
37823;SDS011;23667;43.246;26.576;2022-08-19T14:09:56;6.65;;;1.90;;
37823;SDS011;23667;43.246;26.576;2022-08-19T14:12:21;13.85;;;2.10;;
37823;SDS011;23667;43.246;26.576;2022-08-19T14:14:47;11.27;;;1.95;;
37823;SDS011;23667;43.246;26.576;2022-08-19T14:17:14;11.15;;;1.80;;
37823;SDS011;23667;43.246;26.576;2022-08-19T14:19:40;6.18;;;1.92;;
37823;SDS011;23667;43.246;26.576;2022-08-19T14:22:06;16.23;;;1.80;;
37823;SDS011;23667;43.246;26.576;2022-08-19T14:24:31;6.80;;;1.75;;
37823;SDS011;23667;43.246;26.576;2022-08-19T14:26:57;9.02;;;2.00;;
37823;SDS011;23667;43.246;26.576;2022-08-19T14:29:23;9.73;;;1.80;;
37823;SDS011;23667;43.246;26.576;2022-08-19T14:31:49;13.52;;;1.83;;
37823;SDS011;23667;43.246;26.576;2022-08-19T14:34:15;10.55;;;1.80;;
37823;SDS011;23667;43.246;26.576;2022-08-19T14:36:40;8.80;;;2.10;;
37823;SDS011;23667;43.246;26.576;2022-08-19T14:39:06;10.23;;;1.98;;
37823;SDS011;23667;43.246;26.576;2022-08-19T14:41:35;8.23;;;1.88;;
37823;SDS011;23667;43.246;26.576;2022-08-19T14:44:01;7.05;;;1.77;;
37823;SDS011;23667;43.246;26.576;2022-08-19T14:46:27;8.23;;;1.83;;
37823;SDS011;23667;43.246;26.576;2022-08-19T14:48:54;13.52;;;2.42;;
37823;SDS011;23667;43.246;26.576;2022-08-19T14:51:21;12.32;;;2.22;;